sensor_id;sensor_type;location;lat;lon;timestamp;P1;durP1;ratioP1;P2;durP2;ratioP2
22774;SDS011;11554;51.106;3.684;2022-10-16T00:00:00;1.90;;;0.90;;
22774;SDS011;11554;51.106;3.684;2022-10-16T00:05:00;1.90;;;0.90;;
22774;SDS011;11554;51.106;3.684;2022-10-16T00:10:00;3.00;;;0.70;;
22774;SDS011;11554;51.106;3.684;2022-10-16T00:15:00;3.00;;;0.70;;
22774;SDS011;11554;51.106;3.684;2022-10-16T00:20:00;1.40;;;0.60;;
22774;SDS011;11554;51.106;3.684;2022-10-16T00:25:00;1.40;;;0.60;;
22774;SDS011;11554;51.106;3.684;2022-10-16T00:30:00;3.30;;;0.70;;
22774;SDS011;11554;51.106;3.684;2022-10-16T00:35:00;3.30;;;0.70;;
22774;SDS011;11554;51.106;3.684;2022-10-16T00:40:00;1.90;;;0.60;;
22774;SDS011;11554;51.106;3.684;2022-10-16T00:45:00;1.90;;;0.60;;
22774;SDS011;11554;51.106;3.684;2022-10-16T00:50:07;1.40;;;0.70;;
22774;SDS011;11554;51.106;3.684;2022-10-16T00:55:02;1.40;;;0.70;;
22774;SDS011;11554;51.106;3.684;2022-10-16T01:00:01;1.50;;;0.70;;
22774;SDS011;11554;51.106;3.684;2022-10-16T01:05:01;1.50;;;0.70;;
22774;SDS011;11554;51.106;3.684;2022-10-16T01:10:06;1.90;;;0.70;;
22774;SDS011;11554;51.106;3.684;2022-10-16T01:15:06;1.90;;;0.70;;
22774;SDS011;11554;51.106;3.684;2022-10-16T01:20:07;3.20;;;1.00;;
22774;SDS011;11554;51.106;3.684;2022-10-16T01:25:05;3.20;;;1.00;;
22774;SDS011;11554;51.106;3.684;2022-10-16T01:30:04;3.20;;;1.10;;
22774;SDS011;11554;51.106;3.684;2022-10-16T01:35:03;3.20;;;1.10;;
22774;SDS011;11554;51.106;3.684;2022-10-16T01:40:03;3.10;;;0.90;;
22774;SDS011;11554;51.106;3.684;2022-10-16T01:45:01;3.10;;;0.90;;
22774;SDS011;11554;51.106;3.684;2022-10-16T01:50:02;3.60;;;1.10;;
22774;SDS011;11554;51.106;3.684;2022-10-16T01:55:03;3.60;;;1.10;;
22774;SDS011;11554;51.106;3.684;2022-10-16T02:00:04;2.60;;;0.90;;
22774;SDS011;11554;51.106;3.684;2022-10-16T02:05:05;2.60;;;0.90;;
22774;SDS011;11554;51.106;3.684;2022-10-16T02:10:01;3.10;;;0.90;;
22774;SDS011;11554;51.106;3.684;2022-10-16T02:15:00;3.10;;;0.90;;
22774;SDS011;11554;51.106;3.684;2022-10-16T02:20:00;3.50;;;1.00;;
22774;SDS011;11554;51.106;3.684;2022-10-16T02:25:04;3.50;;;1.00;;
22774;SDS011;11554;51.106;3.684;2022-10-16T02:30:05;2.90;;;1.00;;
22774;SDS011;11554;51.106;3.684;2022-10-16T02:35:00;2.90;;;1.00;;
22774;SDS011;11554;51.106;3.684;2022-10-16T02:40:00;4.60;;;1.10;;
22774;SDS011;11554;51.106;3.684;2022-10-16T02:45:00;4.60;;;1.10;;
22774;SDS011;11554;51.106;3.684;2022-10-16T02:50:00;5.30;;;1.10;;
22774;SDS011;11554;51.106;3.684;2022-10-16T02:55:00;5.30;;;1.10;;
22774;SDS011;11554;51.106;3.684;2022-10-16T03:00:00;4.60;;;1.10;;
22774;SDS011;11554;51.106;3.684;2022-10-16T03:05:00;4.60;;;1.10;;
22774;SDS011;11554;51.106;3.684;2022-10-16T03:10:00;2.60;;;0.90;;
22774;SDS011;11554;51.106;3.684;2022-10-16T03:15:00;2.60;;;0.90;;
22774;SDS011;11554;51.106;3.684;2022-10-16T03:20:00;3.50;;;1.10;;
22774;SDS011;11554;51.106;3.684;2022-10-16T03:25:00;3.50;;;1.10;;
22774;SDS011;11554;51.106;3.684;2022-10-16T03:30:00;3.30;;;1.10;;
22774;SDS011;11554;51.106;3.684;2022-10-16T03:35:00;3.30;;;1.10;;
22774;SDS011;11554;51.106;3.684;2022-10-16T03:40:00;4.10;;;1.10;;
22774;SDS011;11554;51.106;3.684;2022-10-16T03:45:00;4.10;;;1.10;;
22774;SDS011;11554;51.106;3.684;2022-10-16T03:50:00;3.40;;;1.20;;
22774;SDS011;11554;51.106;3.684;2022-10-16T03:55:00;3.40;;;1.20;;
22774;SDS011;11554;51.106;3.684;2022-10-16T04:00:00;2.60;;;0.80;;
22774;SDS011;11554;51.106;3.684;2022-10-16T04:05:00;2.60;;;0.80;;
22774;SDS011;11554;51.106;3.684;2022-10-16T04:10:00;4.50;;;1.50;;
22774;SDS011;11554;51.106;3.684;2022-10-16T04:15:00;4.50;;;1.50;;
22774;SDS011;11554;51.106;3.684;2022-10-16T04:20:00;2.40;;;1.10;;
22774;SDS011;11554;51.106;3.684;2022-10-16T04:25:00;2.40;;;1.10;;
22774;SDS011;11554;51.106;3.684;2022-10-16T04:30:00;4.00;;;1.30;;
22774;SDS011;11554;51.106;3.684;2022-10-16T04:35:00;4.00;;;1.30;;
22774;SDS011;11554;51.106;3.684;2022-10-16T04:40:00;5.30;;;1.40;;
22774;SDS011;11554;51.106;3.684;2022-10-16T04:45:00;5.30;;;1.40;;
22774;SDS011;11554;51.106;3.684;2022-10-16T04:50:00;4.20;;;1.20;;
22774;SDS011;11554;51.106;3.684;2022-10-16T04:55:01;4.20;;;1.20;;
22774;SDS011;11554;51.106;3.684;2022-10-16T05:00:00;5.00;;;1.30;;
22774;SDS011;11554;51.106;3.684;2022-10-16T05:05:00;5.00;;;1.30;;
22774;SDS011;11554;51.106;3.684;2022-10-16T05:10:00;5.60;;;1.40;;
22774;SDS011;11554;51.106;3.684;2022-10-16T05:15:00;5.60;;;1.40;;
22774;SDS011;11554;51.106;3.684;2022-10-16T05:20:00;3.90;;;1.20;;
22774;SDS011;11554;51.106;3.684;2022-10-16T05:25:00;3.90;;;1.20;;
22774;SDS011;11554;51.106;3.684;2022-10-16T05:30:00;3.60;;;1.20;;
22774;SDS011;11554;51.106;3.684;2022-10-16T05:35:00;3.60;;;1.20;;
22774;SDS011;11554;51.106;3.684;2022-10-16T05:40:00;6.60;;;1.50;;
22774;SDS011;11554;51.106;3.684;2022-10-16T05:45:00;6.60;;;1.50;;
22774;SDS011;11554;51.106;3.684;2022-10-16T05:50:00;6.70;;;1.50;;
22774;SDS011;11554;51.106;3.684;2022-10-16T05:55:00;6.70;;;1.50;;
22774;SDS011;11554;51.106;3.684;2022-10-16T06:00:00;3.50;;;1.20;;
22774;SDS011;11554;51.106;3.684;2022-10-16T06:05:00;3.50;;;1.20;;
22774;SDS011;11554;51.106;3.684;2022-10-16T06:10:00;4.60;;;1.30;;
22774;SDS011;11554;51.106;3.684;2022-10-16T06:15:00;4.60;;;1.30;;
22774;SDS011;11554;51.106;3.684;2022-10-16T06:20:00;3.10;;;1.20;;
22774;SDS011;11554;51.106;3.684;2022-10-16T06:25:00;3.10;;;1.20;;
22774;SDS011;11554;51.106;3.684;2022-10-16T06:30:00;6.60;;;1.50;;
22774;SDS011;11554;51.106;3.684;2022-10-16T06:35:00;6.60;;;1.50;;
22774;SDS011;11554;51.106;3.684;2022-10-16T06:40:00;4.50;;;1.50;;
22774;SDS011;11554;51.106;3.684;2022-10-16T06:45:00;4.50;;;1.50;;
22774;SDS011;11554;51.106;3.684;2022-10-16T06:50:00;6.50;;;1.40;;
22774;SDS011;11554;51.106;3.684;2022-10-16T06:55:00;6.50;;;1.40;;
22774;SDS011;11554;51.106;3.684;2022-10-16T07:00:00;5.40;;;1.50;;
22774;SDS011;11554;51.106;3.684;2022-10-16T07:05:00;5.40;;;1.50;;
22774;SDS011;11554;51.106;3.684;2022-10-16T07:10:00;6.10;;;1.50;;
22774;SDS011;11554;51.106;3.684;2022-10-16T07:15:00;6.10;;;1.50;;
22774;SDS011;11554;51.106;3.684;2022-10-16T07:20:00;5.60;;;1.60;;
22774;SDS011;11554;51.106;3.684;2022-10-16T07:25:00;5.60;;;1.60;;
22774;SDS011;11554;51.106;3.684;2022-10-16T07:30:00;4.20;;;1.40;;
22774;SDS011;11554;51.106;3.684;2022-10-16T07:35:00;4.20;;;1.40;;
22774;SDS011;11554;51.106;3.684;2022-10-16T07:40:00;4.90;;;1.60;;
22774;SDS011;11554;51.106;3.684;2022-10-16T07:45:00;4.90;;;1.60;;
22774;SDS011;11554;51.106;3.684;2022-10-16T07:50:00;7.20;;;1.60;;
22774;SDS011;11554;51.106;3.684;2022-10-16T07:55:00;7.20;;;1.60;;
22774;SDS011;11554;51.106;3.684;2022-10-16T08:00:00;5.50;;;1.70;;
22774;SDS011;11554;51.106;3.684;2022-10-16T08:05:00;5.50;;;1.70;;
22774;SDS011;11554;51.106;3.684;2022-10-16T08:10:00;6.40;;;1.50;;
22774;SDS011;11554;51.106;3.684;2022-10-16T08:15:00;6.40;;;1.50;;
22774;SDS011;11554;51.106;3.684;2022-10-16T08:20:00;7.20;;;1.70;;
22774;SDS011;11554;51.106;3.684;2022-10-16T08:25:00;7.20;;;1.70;;
22774;SDS011;11554;51.106;3.684;2022-10-16T08:30:00;6.70;;;1.60;;
22774;SDS011;11554;51.106;3.684;2022-10-16T08:35:00;6.70;;;1.60;;
22774;SDS011;11554;51.106;3.684;2022-10-16T08:40:00;10.40;;;1.50;;
22774;SDS011;11554;51.106;3.684;2022-10-16T08:45:20;10.40;;;1.50;;
22774;SDS011;11554;51.106;3.684;2022-10-16T08:50:02;7.00;;;1.50;;
22774;SDS011;11554;51.106;3.684;2022-10-16T08:55:00;7.00;;;1.50;;
22774;SDS011;11554;51.106;3.684;2022-10-16T09:00:05;5.80;;;1.50;;
22774;SDS011;11554;51.106;3.684;2022-10-16T09:05:17;5.80;;;1.50;;
22774;SDS011;11554;51.106;3.684;2022-10-16T09:10:11;5.80;;;1.80;;
22774;SDS011;11554;51.106;3.684;2022-10-16T09:15:06;5.80;;;1.80;;
22774;SDS011;11554;51.106;3.684;2022-10-16T09:20:16;5.50;;;1.40;;
22774;SDS011;11554;51.106;3.684;2022-10-16T09:25:10;5.50;;;1.40;;
22774;SDS011;11554;51.106;3.684;2022-10-16T09:30:00;5.40;;;1.40;;
22774;SDS011;11554;51.106;3.684;2022-10-16T09:35:00;5.40;;;1.40;;
22774;SDS011;11554;51.106;3.684;2022-10-16T09:40:00;5.10;;;1.40;;
22774;SDS011;11554;51.106;3.684;2022-10-16T09:45:01;5.10;;;1.40;;
22774;SDS011;11554;51.106;3.684;2022-10-16T09:50:02;8.10;;;2.00;;
22774;SDS011;11554;51.106;3.684;2022-10-16T09:55:02;8.10;;;2.00;;
22774;SDS011;11554;51.106;3.684;2022-10-16T10:00:08;12.50;;;1.80;;
22774;SDS011;11554;51.106;3.684;2022-10-16T10:05:00;12.50;;;1.80;;
22774;SDS011;11554;51.106;3.684;2022-10-16T10:10:03;9.70;;;1.70;;
22774;SDS011;11554;51.106;3.684;2022-10-16T10:15:04;9.70;;;1.70;;
22774;SDS011;11554;51.106;3.684;2022-10-16T10:20:15;10.00;;;2.00;;
22774;SDS011;11554;51.106;3.684;2022-10-16T10:25:14;10.00;;;2.00;;
22774;SDS011;11554;51.106;3.684;2022-10-16T10:30:04;7.70;;;1.90;;
22774;SDS011;11554;51.106;3.684;2022-10-16T10:35:11;7.70;;;1.90;;
22774;SDS011;11554;51.106;3.684;2022-10-16T10:40:05;10.40;;;1.80;;
22774;SDS011;11554;51.106;3.684;2022-10-16T10:45:16;10.40;;;1.80;;
22774;SDS011;11554;51.106;3.684;2022-10-16T10:50:07;8.10;;;1.90;;
22774;SDS011;11554;51.106;3.684;2022-10-16T10:55:10;8.10;;;1.90;;
22774;SDS011;11554;51.106;3.684;2022-10-16T11:00:10;9.40;;;2.00;;
22774;SDS011;11554;51.106;3.684;2022-10-16T11:05:16;9.40;;;2.00;;
22774;SDS011;11554;51.106;3.684;2022-10-16T11:10:04;9.70;;;2.00;;
22774;SDS011;11554;51.106;3.684;2022-10-16T11:15:07;9.70;;;2.00;;
22774;SDS011;11554;51.106;3.684;2022-10-16T11:20:05;9.80;;;1.70;;
22774;SDS011;11554;51.106;3.684;2022-10-16T11:25:04;9.80;;;1.70;;
22774;SDS011;11554;51.106;3.684;2022-10-16T11:30:05;8.00;;;1.60;;
22774;SDS011;11554;51.106;3.684;2022-10-16T11:35:05;8.00;;;1.60;;
22774;SDS011;11554;51.106;3.684;2022-10-16T11:40:16;6.80;;;1.40;;
22774;SDS011;11554;51.106;3.684;2022-10-16T11:45:03;6.80;;;1.40;;
22774;SDS011;11554;51.106;3.684;2022-10-16T11:50:03;7.30;;;1.50;;
22774;SDS011;11554;51.106;3.684;2022-10-16T11:55:04;7.30;;;1.50;;
22774;SDS011;11554;51.106;3.684;2022-10-16T12:00:04;9.60;;;1.70;;
22774;SDS011;11554;51.106;3.684;2022-10-16T12:05:11;9.60;;;1.70;;
22774;SDS011;11554;51.106;3.684;2022-10-16T12:10:10;7.20;;;1.30;;
22774;SDS011;11554;51.106;3.684;2022-10-16T12:15:01;7.20;;;1.30;;
22774;SDS011;11554;51.106;3.684;2022-10-16T12:20:17;9.90;;;1.60;;
22774;SDS011;11554;51.106;3.684;2022-10-16T12:25:00;9.90;;;1.60;;
22774;SDS011;11554;51.106;3.684;2022-10-16T12:30:02;6.00;;;1.40;;
22774;SDS011;11554;51.106;3.684;2022-10-16T12:35:01;6.00;;;1.40;;
22774;SDS011;11554;51.106;3.684;2022-10-16T12:40:11;6.30;;;1.30;;
22774;SDS011;11554;51.106;3.684;2022-10-16T12:45:01;6.30;;;1.30;;
22774;SDS011;11554;51.106;3.684;2022-10-16T12:50:00;8.80;;;1.70;;
22774;SDS011;11554;51.106;3.684;2022-10-16T12:55:00;8.80;;;1.70;;
22774;SDS011;11554;51.106;3.684;2022-10-16T13:00:04;5.90;;;1.30;;
22774;SDS011;11554;51.106;3.684;2022-10-16T13:05:12;5.90;;;1.30;;
22774;SDS011;11554;51.106;3.684;2022-10-16T13:10:10;5.70;;;1.10;;
22774;SDS011;11554;51.106;3.684;2022-10-16T13:15:14;5.70;;;1.10;;
22774;SDS011;11554;51.106;3.684;2022-10-16T13:20:09;4.80;;;1.00;;
22774;SDS011;11554;51.106;3.684;2022-10-16T13:25:14;4.80;;;1.00;;
22774;SDS011;11554;51.106;3.684;2022-10-16T13:30:02;3.80;;;0.80;;
22774;SDS011;11554;51.106;3.684;2022-10-16T13:35:00;3.80;;;0.80;;
22774;SDS011;11554;51.106;3.684;2022-10-16T13:40:12;4.90;;;1.10;;
22774;SDS011;11554;51.106;3.684;2022-10-16T13:45:00;4.90;;;1.10;;
22774;SDS011;11554;51.106;3.684;2022-10-16T13:50:01;3.90;;;0.90;;
22774;SDS011;11554;51.106;3.684;2022-10-16T13:55:00;3.90;;;0.90;;
22774;SDS011;11554;51.106;3.684;2022-10-16T14:00:00;6.20;;;1.10;;
22774;SDS011;11554;51.106;3.684;2022-10-16T14:05:01;6.20;;;1.10;;
22774;SDS011;11554;51.106;3.684;2022-10-16T14:10:02;6.70;;;1.10;;
22774;SDS011;11554;51.106;3.684;2022-10-16T14:15:00;6.70;;;1.10;;
22774;SDS011;11554;51.106;3.684;2022-10-16T14:20:03;3.50;;;0.80;;
22774;SDS011;11554;51.106;3.684;2022-10-16T14:25:01;3.50;;;0.80;;
22774;SDS011;11554;51.106;3.684;2022-10-16T14:30:14;3.10;;;0.70;;
22774;SDS011;11554;51.106;3.684;2022-10-16T14:35:00;3.10;;;0.70;;
22774;SDS011;11554;51.106;3.684;2022-10-16T14:40:02;4.10;;;1.00;;
22774;SDS011;11554;51.106;3.684;2022-10-16T14:45:00;4.10;;;1.00;;
22774;SDS011;11554;51.106;3.684;2022-10-16T14:50:00;4.00;;;1.10;;
22774;SDS011;11554;51.106;3.684;2022-10-16T14:55:00;4.00;;;1.10;;
22774;SDS011;11554;51.106;3.684;2022-10-16T15:00:00;2.60;;;1.00;;
22774;SDS011;11554;51.106;3.684;2022-10-16T15:05:10;2.60;;;1.00;;
22774;SDS011;11554;51.106;3.684;2022-10-16T15:10:00;3.50;;;0.70;;
22774;SDS011;11554;51.106;3.684;2022-10-16T15:15:00;3.50;;;0.70;;
22774;SDS011;11554;51.106;3.684;2022-10-16T15:20:00;2.70;;;0.50;;
22774;SDS011;11554;51.106;3.684;2022-10-16T15:25:00;2.70;;;0.50;;
22774;SDS011;11554;51.106;3.684;2022-10-16T15:30:00;2.10;;;0.70;;
22774;SDS011;11554;51.106;3.684;2022-10-16T15:35:00;2.10;;;0.70;;
22774;SDS011;11554;51.106;3.684;2022-10-16T15:40:00;2.80;;;1.10;;
22774;SDS011;11554;51.106;3.684;2022-10-16T15:45:00;2.80;;;1.10;;
22774;SDS011;11554;51.106;3.684;2022-10-16T15:50:00;4.10;;;1.20;;
22774;SDS011;11554;51.106;3.684;2022-10-16T15:55:00;4.10;;;1.20;;
22774;SDS011;11554;51.106;3.684;2022-10-16T16:00:00;4.80;;;1.10;;
22774;SDS011;11554;51.106;3.684;2022-10-16T16:05:00;4.80;;;1.10;;
22774;SDS011;11554;51.106;3.684;2022-10-16T16:10:00;3.80;;;1.00;;
22774;SDS011;11554;51.106;3.684;2022-10-16T16:15:00;3.80;;;1.00;;
22774;SDS011;11554;51.106;3.684;2022-10-16T16:20:00;6.30;;;2.50;;
22774;SDS011;11554;51.106;3.684;2022-10-16T16:25:00;6.30;;;2.50;;
22774;SDS011;11554;51.106;3.684;2022-10-16T16:30:00;3.20;;;1.30;;
22774;SDS011;11554;51.106;3.684;2022-10-16T16:35:00;3.20;;;1.30;;
22774;SDS011;11554;51.106;3.684;2022-10-16T16:40:00;4.40;;;1.40;;
22774;SDS011;11554;51.106;3.684;2022-10-16T16:45:00;4.40;;;1.40;;
22774;SDS011;11554;51.106;3.684;2022-10-16T16:50:00;3.00;;;1.60;;
22774;SDS011;11554;51.106;3.684;2022-10-16T16:55:00;3.00;;;1.60;;
22774;SDS011;11554;51.106;3.684;2022-10-16T17:00:00;8.10;;;2.60;;
22774;SDS011;11554;51.106;3.684;2022-10-16T17:05:00;8.10;;;2.60;;
22774;SDS011;11554;51.106;3.684;2022-10-16T17:10:00;3.90;;;1.90;;
22774;SDS011;11554;51.106;3.684;2022-10-16T17:15:00;3.90;;;1.90;;
22774;SDS011;11554;51.106;3.684;2022-10-16T17:20:00;6.20;;;2.20;;
22774;SDS011;11554;51.106;3.684;2022-10-16T17:25:00;6.20;;;2.20;;
22774;SDS011;11554;51.106;3.684;2022-10-16T17:30:00;7.30;;;4.50;;
22774;SDS011;11554;51.106;3.684;2022-10-16T17:35:00;7.30;;;4.50;;
22774;SDS011;11554;51.106;3.684;2022-10-16T17:40:00;8.40;;;4.70;;
22774;SDS011;11554;51.106;3.684;2022-10-16T17:45:00;8.40;;;4.70;;
22774;SDS011;11554;51.106;3.684;2022-10-16T17:50:00;7.70;;;4.50;;
22774;SDS011;11554;51.106;3.684;2022-10-16T17:55:00;7.70;;;4.50;;
22774;SDS011;11554;51.106;3.684;2022-10-16T18:00:00;6.00;;;2.80;;
22774;SDS011;11554;51.106;3.684;2022-10-16T18:05:00;6.00;;;2.80;;
22774;SDS011;11554;51.106;3.684;2022-10-16T18:10:00;11.10;;;6.10;;
22774;SDS011;11554;51.106;3.684;2022-10-16T18:15:00;11.10;;;6.10;;
22774;SDS011;11554;51.106;3.684;2022-10-16T18:20:00;7.20;;;3.70;;
22774;SDS011;11554;51.106;3.684;2022-10-16T18:25:00;7.20;;;3.70;;
22774;SDS011;11554;51.106;3.684;2022-10-16T18:30:00;8.30;;;3.80;;
22774;SDS011;11554;51.106;3.684;2022-10-16T18:35:00;8.30;;;3.80;;
22774;SDS011;11554;51.106;3.684;2022-10-16T18:40:00;7.50;;;3.40;;
22774;SDS011;11554;51.106;3.684;2022-10-16T18:45:00;7.50;;;3.40;;
22774;SDS011;11554;51.106;3.684;2022-10-16T18:50:00;9.00;;;4.10;;
22774;SDS011;11554;51.106;3.684;2022-10-16T18:55:00;9.00;;;4.10;;
22774;SDS011;11554;51.106;3.684;2022-10-16T19:00:00;8.50;;;3.70;;
22774;SDS011;11554;51.106;3.684;2022-10-16T19:05:00;8.50;;;3.70;;
22774;SDS011;11554;51.106;3.684;2022-10-16T19:10:00;5.80;;;3.40;;
22774;SDS011;11554;51.106;3.684;2022-10-16T19:15:00;5.80;;;3.40;;
22774;SDS011;11554;51.106;3.684;2022-10-16T19:20:00;6.90;;;3.60;;
22774;SDS011;11554;51.106;3.684;2022-10-16T19:25:00;6.90;;;3.60;;
22774;SDS011;11554;51.106;3.684;2022-10-16T19:30:00;7.10;;;3.60;;
22774;SDS011;11554;51.106;3.684;2022-10-16T19:35:00;7.10;;;3.60;;
22774;SDS011;11554;51.106;3.684;2022-10-16T19:40:00;6.40;;;3.20;;
22774;SDS011;11554;51.106;3.684;2022-10-16T19:45:00;6.40;;;3.20;;
22774;SDS011;11554;51.106;3.684;2022-10-16T19:50:00;6.10;;;3.00;;
22774;SDS011;11554;51.106;3.684;2022-10-16T19:55:00;6.10;;;3.00;;
22774;SDS011;11554;51.106;3.684;2022-10-16T20:00:00;6.80;;;3.20;;
22774;SDS011;11554;51.106;3.684;2022-10-16T20:05:00;6.80;;;3.20;;
22774;SDS011;11554;51.106;3.684;2022-10-16T20:10:00;6.80;;;3.50;;
22774;SDS011;11554;51.106;3.684;2022-10-16T20:15:00;6.80;;;3.50;;
22774;SDS011;11554;51.106;3.684;2022-10-16T20:20:00;8.20;;;4.00;;
22774;SDS011;11554;51.106;3.684;2022-10-16T20:25:00;8.20;;;4.00;;
22774;SDS011;11554;51.106;3.684;2022-10-16T20:30:00;7.00;;;4.10;;
22774;SDS011;11554;51.106;3.684;2022-10-16T20:35:00;7.00;;;4.10;;
22774;SDS011;11554;51.106;3.684;2022-10-16T20:40:00;8.20;;;4.70;;
22774;SDS011;11554;51.106;3.684;2022-10-16T20:45:00;8.20;;;4.70;;
22774;SDS011;11554;51.106;3.684;2022-10-16T20:50:00;7.50;;;4.70;;
22774;SDS011;11554;51.106;3.684;2022-10-16T20:55:00;7.50;;;4.70;;
22774;SDS011;11554;51.106;3.684;2022-10-16T21:00:00;8.70;;;4.90;;
22774;SDS011;11554;51.106;3.684;2022-10-16T21:05:00;8.70;;;4.90;;
22774;SDS011;11554;51.106;3.684;2022-10-16T21:10:00;7.60;;;5.30;;
22774;SDS011;11554;51.106;3.684;2022-10-16T21:15:00;7.60;;;5.30;;
22774;SDS011;11554;51.106;3.684;2022-10-16T21:20:00;9.30;;;5.60;;
22774;SDS011;11554;51.106;3.684;2022-10-16T21:25:00;9.30;;;5.60;;
22774;SDS011;11554;51.106;3.684;2022-10-16T21:30:00;8.20;;;5.20;;
22774;SDS011;11554;51.106;3.684;2022-10-16T21:35:00;8.20;;;5.20;;
22774;SDS011;11554;51.106;3.684;2022-10-16T21:40:00;9.90;;;5.80;;
22774;SDS011;11554;51.106;3.684;2022-10-16T21:45:00;9.90;;;5.80;;
22774;SDS011;11554;51.106;3.684;2022-10-16T21:50:00;9.80;;;6.30;;
22774;SDS011;11554;51.106;3.684;2022-10-16T21:55:00;9.80;;;6.30;;
22774;SDS011;11554;51.106;3.684;2022-10-16T22:00:00;9.10;;;5.90;;
22774;SDS011;11554;51.106;3.684;2022-10-16T22:05:00;9.10;;;5.90;;
22774;SDS011;11554;51.106;3.684;2022-10-16T22:10:00;8.80;;;6.80;;
22774;SDS011;11554;51.106;3.684;2022-10-16T22:15:00;8.80;;;6.80;;
22774;SDS011;11554;51.106;3.684;2022-10-16T22:20:00;9.90;;;7.10;;
22774;SDS011;11554;51.106;3.684;2022-10-16T22:25:00;9.90;;;7.10;;
22774;SDS011;11554;51.106;3.684;2022-10-16T22:30:00;12.00;;;8.00;;
22774;SDS011;11554;51.106;3.684;2022-10-16T22:35:00;12.00;;;8.00;;
22774;SDS011;11554;51.106;3.684;2022-10-16T22:40:00;13.80;;;8.60;;
22774;SDS011;11554;51.106;3.684;2022-10-16T22:45:00;13.80;;;8.60;;
22774;SDS011;11554;51.106;3.684;2022-10-16T22:50:00;13.70;;;9.70;;
22774;SDS011;11554;51.106;3.684;2022-10-16T22:55:00;13.70;;;9.70;;
22774;SDS011;11554;51.106;3.684;2022-10-16T23:00:00;14.40;;;9.70;;
22774;SDS011;11554;51.106;3.684;2022-10-16T23:05:00;14.40;;;9.70;;
22774;SDS011;11554;51.106;3.684;2022-10-16T23:10:00;13.80;;;8.80;;
22774;SDS011;11554;51.106;3.684;2022-10-16T23:15:00;13.80;;;8.80;;
22774;SDS011;11554;51.106;3.684;2022-10-16T23:20:00;14.30;;;8.80;;
22774;SDS011;11554;51.106;3.684;2022-10-16T23:25:00;14.30;;;8.80;;
22774;SDS011;11554;51.106;3.684;2022-10-16T23:30:00;12.40;;;8.50;;
22774;SDS011;11554;51.106;3.684;2022-10-16T23:35:00;12.40;;;8.50;;
22774;SDS011;11554;51.106;3.684;2022-10-16T23:40:00;12.90;;;8.40;;
22774;SDS011;11554;51.106;3.684;2022-10-16T23:45:00;12.90;;;8.40;;
22774;SDS011;11554;51.106;3.684;2022-10-16T23:50:00;13.20;;;8.30;;
22774;SDS011;11554;51.106;3.684;2022-10-16T23:55:00;13.20;;;8.30;;
